ANZ015M NZAA-NZNR
Flight info
| Callsign | ANZ015M |
|---|---|
| Flight time | 0h 47m |
| Altitude | 18000 |
| Route | STEAL3P ORIDI H211 HN Y550 GENDA H211 NR NR1B |
| Aircraft | AT76/M-SDFGIRY/S |
Departure
| Time | 2026-04-16 02:24 |
|---|---|
| Airport | Auckland International Airport (NZAA) |
Arrival
| Time | 2026-04-16 03:11 |
|---|---|
| Airport | Hawke's Bay Airport (NZNR) |
| Time | Latitude | Longitude | Altitude | Speed | Heading |
|---|---|---|---|---|---|
| 2026-04-16 01:36 | -37.00619 | 174.79333 | 22 ft | 0 kts | 21° |
| 2026-04-16 02:16 | -37.00620 | 174.79332 | 22 ft | 1 kts | 21° |
| 2026-04-16 02:16 | -37.00642 | 174.79322 | 22 ft | 4 kts | 13° |
| 2026-04-16 02:17 | -37.00668 | 174.79321 | 22 ft | 4 kts | 343° |
| 2026-04-16 02:17 | -37.00692 | 174.79332 | 22 ft | 4 kts | 328° |
| 2026-04-16 02:17 | -37.00711 | 174.79353 | 22 ft | 4 kts | 296° |
| 2026-04-16 02:17 | -37.00715 | 174.79379 | 22 ft | 1 kts | 251° |
| 2026-04-16 02:18 | -37.00715 | 174.79380 | 22 ft | 0 kts | 251° |
| 2026-04-16 02:21 | -37.00716 | 174.79375 | 22 ft | 0 kts | 250° |
| 2026-04-16 02:21 | -37.00731 | 174.79339 | 22 ft | 9 kts | 231° |
| 2026-04-16 02:21 | -37.00785 | 174.79335 | 22 ft | 10 kts | 152° |
| 2026-04-16 02:21 | -37.00790 | 174.79432 | 23 ft | 18 kts | 69° |
| 2026-04-16 02:22 | -37.00740 | 174.79613 | 22 ft | 24 kts | 70° |
| 2026-04-16 02:22 | -37.00729 | 174.79711 | 22 ft | 9 kts | 131° |
| 2026-04-16 02:22 | -37.00779 | 174.79748 | 24 ft | 8 kts | 155° |
| 2026-04-16 02:22 | -37.00824 | 174.79763 | 22 ft | 6 kts | 165° |
| 2026-04-16 02:23 | -37.00860 | 174.79774 | 23 ft | 8 kts | 171° |
| 2026-04-16 02:23 | -37.00894 | 174.79741 | 26 ft | 10 kts | 244° |
| 2026-04-16 02:23 | -37.00975 | 174.79448 | 22 ft | 64 kts | 250° |
| 2026-04-16 02:23 | -37.01173 | 174.78735 | 39 ft | 105 kts | 247° |
| 2026-04-16 02:24 | -37.01413 | 174.77877 | 466 ft | 107 kts | 247° |
| 2026-04-16 02:24 | -37.01725 | 174.77085 | 1038 ft | 101 kts | 229° |
| 2026-04-16 02:24 | -37.02344 | 174.76681 | 1386 ft | 113 kts | 192° |
| 2026-04-16 02:24 | -37.03190 | 174.76706 | 1588 ft | 126 kts | 186° |
| 2026-04-16 02:25 | -37.04108 | 174.76760 | 1821 ft | 137 kts | 186° |
| 2026-04-16 02:25 | -37.05098 | 174.76792 | 2073 ft | 145 kts | 188° |
| 2026-04-16 02:25 | -37.06093 | 174.76590 | 2327 ft | 148 kts | 200° |
| 2026-04-16 02:25 | -37.07162 | 174.76605 | 2502 ft | 161 kts | 176° |
| 2026-04-16 02:26 | -37.08256 | 174.76612 | 2707 ft | 160 kts | 186° |
| 2026-04-16 02:26 | -37.09385 | 174.76793 | 2962 ft | 167 kts | 178° |
| 2026-04-16 02:26 | -37.10540 | 174.77033 | 3313 ft | 168 kts | 180° |
| 2026-04-16 02:26 | -37.11687 | 174.77193 | 3691 ft | 168 kts | 183° |
| 2026-04-16 02:27 | -37.12852 | 174.77305 | 4043 ft | 169 kts | 184° |
| 2026-04-16 02:27 | -37.14025 | 174.77409 | 4420 ft | 168 kts | 184° |
| 2026-04-16 02:27 | -37.15192 | 174.77509 | 4799 ft | 168 kts | 184° |
| 2026-04-16 02:27 | -37.16367 | 174.77618 | 5154 ft | 170 kts | 185° |
| 2026-04-16 02:28 | -37.17548 | 174.77735 | 5509 ft | 171 kts | 185° |
| 2026-04-16 02:28 | -37.18735 | 174.77847 | 5869 ft | 171 kts | 184° |
| 2026-04-16 02:28 | -37.19931 | 174.77970 | 6180 ft | 174 kts | 185° |
| 2026-04-16 02:28 | -37.21143 | 174.78095 | 6502 ft | 175 kts | 185° |
| 2026-04-16 02:29 | -37.22361 | 174.78226 | 6834 ft | 176 kts | 185° |
| 2026-04-16 02:29 | -37.23588 | 174.78406 | 7139 ft | 183 kts | 174° |
| 2026-04-16 02:29 | -37.24643 | 174.79399 | 7394 ft | 206 kts | 134° |
| 2026-04-16 02:29 | -37.25556 | 174.80772 | 7590 ft | 204 kts | 145° |
| 2026-04-16 02:30 | -37.26587 | 174.82010 | 7893 ft | 205 kts | 146° |
| 2026-04-16 02:30 | -37.27619 | 174.83258 | 8192 ft | 207 kts | 145° |
| 2026-04-16 02:30 | -37.28636 | 174.84564 | 8477 ft | 210 kts | 143° |
| 2026-04-16 02:30 | -37.29640 | 174.85907 | 8746 ft | 212 kts | 143° |
| 2026-04-16 02:31 | -37.30653 | 174.87261 | 9026 ft | 213 kts | 143° |
| 2026-04-16 02:31 | -37.31778 | 174.88382 | 9248 ft | 204 kts | 161° |
| 2026-04-16 02:31 | -37.33008 | 174.89274 | 9526 ft | 205 kts | 161° |
| 2026-04-16 02:31 | -37.34242 | 174.90182 | 9790 ft | 207 kts | 160° |
| 2026-04-16 02:32 | -37.35470 | 174.91151 | 10041 ft | 209 kts | 158° |
| 2026-04-16 02:32 | -37.36688 | 174.92171 | 10285 ft | 211 kts | 157° |
| 2026-04-16 02:32 | -37.37885 | 174.93201 | 10539 ft | 211 kts | 157° |
| 2026-04-16 02:32 | -37.39099 | 174.94243 | 10761 ft | 212 kts | 157° |
| 2026-04-16 02:33 | -37.40325 | 174.95294 | 10987 ft | 213 kts | 158° |
| 2026-04-16 02:33 | -37.41553 | 174.96342 | 11238 ft | 214 kts | 158° |
| 2026-04-16 02:33 | -37.42789 | 174.97397 | 11447 ft | 215 kts | 158° |
| 2026-04-16 02:33 | -37.44031 | 174.98459 | 11667 ft | 216 kts | 158° |
| 2026-04-16 02:34 | -37.45280 | 174.99521 | 11904 ft | 217 kts | 158° |
| 2026-04-16 02:34 | -37.46535 | 175.00595 | 12140 ft | 219 kts | 158° |
| 2026-04-16 02:34 | -37.47797 | 175.01675 | 12371 ft | 220 kts | 158° |
| 2026-04-16 02:34 | -37.49065 | 175.02762 | 12603 ft | 221 kts | 158° |
| 2026-04-16 02:35 | -37.50336 | 175.03851 | 12829 ft | 222 kts | 158° |
| 2026-04-16 02:35 | -37.51616 | 175.04949 | 13048 ft | 223 kts | 158° |
| 2026-04-16 02:35 | -37.52907 | 175.06055 | 13239 ft | 225 kts | 158° |
| 2026-04-16 02:35 | -37.54204 | 175.07165 | 13451 ft | 226 kts | 158° |
| 2026-04-16 02:36 | -37.55511 | 175.08287 | 13660 ft | 228 kts | 158° |
| 2026-04-16 02:36 | -37.56823 | 175.09417 | 13854 ft | 229 kts | 158° |
| 2026-04-16 02:36 | -37.58123 | 175.10536 | 14047 ft | 229 kts | 158° |
| 2026-04-16 02:36 | -37.59440 | 175.11674 | 14239 ft | 230 kts | 158° |
| 2026-04-16 02:37 | -37.60760 | 175.12809 | 14419 ft | 230 kts | 158° |
| 2026-04-16 02:37 | -37.62084 | 175.13954 | 14605 ft | 231 kts | 158° |
| 2026-04-16 02:37 | -37.63415 | 175.15101 | 14781 ft | 232 kts | 158° |
| 2026-04-16 02:37 | -37.64751 | 175.16250 | 14952 ft | 232 kts | 158° |
| 2026-04-16 02:38 | -37.66088 | 175.17399 | 15115 ft | 233 kts | 158° |
| 2026-04-16 02:38 | -37.67430 | 175.18557 | 15283 ft | 234 kts | 159° |
| 2026-04-16 02:38 | -37.68773 | 175.19716 | 15453 ft | 234 kts | 159° |
| 2026-04-16 02:38 | -37.70119 | 175.20879 | 15610 ft | 235 kts | 158° |
| 2026-04-16 02:39 | -37.71469 | 175.22051 | 15787 ft | 236 kts | 159° |
| 2026-04-16 02:39 | -37.72824 | 175.23218 | 15959 ft | 236 kts | 159° |
| 2026-04-16 02:39 | -37.74166 | 175.24378 | 16119 ft | 237 kts | 159° |
| 2026-04-16 02:39 | -37.75526 | 175.25559 | 16281 ft | 237 kts | 158° |
| 2026-04-16 02:40 | -37.76890 | 175.26740 | 16436 ft | 238 kts | 158° |
| 2026-04-16 02:40 | -37.78261 | 175.27927 | 16589 ft | 239 kts | 158° |
| 2026-04-16 02:40 | -37.79631 | 175.29116 | 16733 ft | 239 kts | 159° |
| 2026-04-16 02:40 | -37.81007 | 175.30309 | 16886 ft | 240 kts | 159° |
| 2026-04-16 02:41 | -37.82386 | 175.31496 | 17032 ft | 240 kts | 159° |
| 2026-04-16 02:41 | -37.83769 | 175.32689 | 17178 ft | 241 kts | 158° |
| 2026-04-16 02:41 | -37.85163 | 175.33860 | 17303 ft | 238 kts | 163° |
| 2026-04-16 02:41 | -37.86591 | 175.34815 | 17475 ft | 233 kts | 169° |
| 2026-04-16 02:42 | -37.88060 | 175.35651 | 17624 ft | 231 kts | 172° |
| 2026-04-16 02:42 | -37.89538 | 175.36436 | 17755 ft | 231 kts | 172° |
| 2026-04-16 02:42 | -37.91033 | 175.37232 | 17813 ft | 235 kts | 172° |
| 2026-04-16 02:42 | -37.92565 | 175.38037 | 17838 ft | 241 kts | 171° |
| 2026-04-16 02:43 | -37.94122 | 175.38882 | 17850 ft | 246 kts | 170° |
| 2026-04-16 02:43 | -37.95706 | 175.39764 | 17856 ft | 251 kts | 170° |
| 2026-04-16 02:43 | -37.97318 | 175.40664 | 17855 ft | 254 kts | 169° |
| 2026-04-16 02:43 | -37.98947 | 175.41574 | 17861 ft | 257 kts | 169° |
| 2026-04-16 02:44 | -38.00598 | 175.42495 | 17861 ft | 260 kts | 169° |
| 2026-04-16 02:44 | -38.02263 | 175.43424 | 17853 ft | 263 kts | 169° |
| 2026-04-16 02:44 | -38.03943 | 175.44361 | 17855 ft | 265 kts | 169° |
| 2026-04-16 02:44 | -38.05638 | 175.45308 | 17853 ft | 267 kts | 169° |
| 2026-04-16 02:45 | -38.07346 | 175.46262 | 17851 ft | 269 kts | 168° |
| 2026-04-16 02:45 | -38.09060 | 175.47221 | 17853 ft | 270 kts | 168° |
| 2026-04-16 02:45 | -38.10761 | 175.48174 | 17870 ft | 271 kts | 169° |
| 2026-04-16 02:45 | -38.12490 | 175.49144 | 17853 ft | 272 kts | 169° |
| 2026-04-16 02:46 | -38.14225 | 175.50113 | 17845 ft | 273 kts | 169° |
| 2026-04-16 02:46 | -38.15960 | 175.51086 | 17844 ft | 273 kts | 169° |
| 2026-04-16 02:46 | -38.17697 | 175.52058 | 17850 ft | 273 kts | 168° |
| 2026-04-16 02:46 | -38.19436 | 175.53036 | 17843 ft | 273 kts | 169° |
| 2026-04-16 02:47 | -38.21172 | 175.54010 | 17842 ft | 273 kts | 169° |
| 2026-04-16 02:47 | -38.22910 | 175.54984 | 17848 ft | 273 kts | 169° |
| 2026-04-16 02:47 | -38.24649 | 175.55960 | 17839 ft | 273 kts | 169° |
| 2026-04-16 02:47 | -38.26388 | 175.56941 | 17842 ft | 273 kts | 168° |
| 2026-04-16 02:48 | -38.28126 | 175.57920 | 17840 ft | 273 kts | 168° |
| 2026-04-16 02:48 | -38.29870 | 175.58899 | 17836 ft | 274 kts | 168° |
| 2026-04-16 02:48 | -38.31615 | 175.59882 | 17826 ft | 274 kts | 168° |
| 2026-04-16 02:48 | -38.33358 | 175.60868 | 17831 ft | 274 kts | 168° |
| 2026-04-16 02:49 | -38.35078 | 175.61839 | 17825 ft | 274 kts | 169° |
| 2026-04-16 02:49 | -38.36817 | 175.62820 | 17828 ft | 273 kts | 169° |
| 2026-04-16 02:49 | -38.38552 | 175.63794 | 17829 ft | 273 kts | 168° |
| 2026-04-16 02:49 | -38.40284 | 175.64772 | 17828 ft | 272 kts | 169° |
| 2026-04-16 02:50 | -38.42020 | 175.65753 | 17830 ft | 272 kts | 168° |
| 2026-04-16 02:50 | -38.43754 | 175.66734 | 17824 ft | 273 kts | 168° |
| 2026-04-16 02:50 | -38.45485 | 175.67711 | 17820 ft | 272 kts | 169° |
| 2026-04-16 02:50 | -38.47215 | 175.68691 | 17821 ft | 271 kts | 168° |
| 2026-04-16 02:51 | -38.48940 | 175.69665 | 17830 ft | 271 kts | 169° |
| 2026-04-16 02:51 | -38.50664 | 175.70643 | 17819 ft | 271 kts | 168° |
| 2026-04-16 02:51 | -38.52386 | 175.71621 | 17822 ft | 270 kts | 168° |
| 2026-04-16 02:51 | -38.54101 | 175.72591 | 17827 ft | 270 kts | 168° |
| 2026-04-16 02:52 | -38.55799 | 175.73552 | 17823 ft | 270 kts | 169° |
| 2026-04-16 02:52 | -38.57518 | 175.74528 | 17831 ft | 270 kts | 168° |
| 2026-04-16 02:52 | -38.59243 | 175.75507 | 17838 ft | 272 kts | 169° |
| 2026-04-16 02:52 | -38.60975 | 175.76489 | 17822 ft | 273 kts | 169° |
| 2026-04-16 02:53 | -38.62711 | 175.77477 | 17817 ft | 273 kts | 169° |
| 2026-04-16 02:53 | -38.64448 | 175.78465 | 17818 ft | 273 kts | 169° |
| 2026-04-16 02:53 | -38.66190 | 175.79456 | 17817 ft | 274 kts | 169° |
| 2026-04-16 02:53 | -38.67934 | 175.80448 | 17810 ft | 275 kts | 169° |
| 2026-04-16 02:54 | -38.69684 | 175.81443 | 17800 ft | 275 kts | 169° |
| 2026-04-16 02:54 | -38.71409 | 175.82425 | 17802 ft | 275 kts | 168° |
| 2026-04-16 02:54 | -38.73164 | 175.83420 | 17804 ft | 275 kts | 169° |
| 2026-04-16 02:54 | -38.74910 | 175.84414 | 17806 ft | 275 kts | 168° |
| 2026-04-16 02:55 | -38.76657 | 175.85408 | 17810 ft | 275 kts | 168° |
| 2026-04-16 02:55 | -38.78404 | 175.86406 | 17800 ft | 275 kts | 168° |
| 2026-04-16 02:55 | -38.80156 | 175.87408 | 17801 ft | 275 kts | 168° |
| 2026-04-16 02:55 | -38.81902 | 175.88406 | 17797 ft | 275 kts | 168° |
| 2026-04-16 02:56 | -38.83649 | 175.89418 | 17815 ft | 279 kts | 164° |
| 2026-04-16 02:56 | -38.85168 | 175.91066 | 17807 ft | 301 kts | 139° |
| 2026-04-16 02:56 | -38.86388 | 175.93291 | 17802 ft | 308 kts | 130° |
| 2026-04-16 02:56 | -38.87508 | 175.95684 | 17672 ft | 313 kts | 128° |
| 2026-04-16 02:57 | -38.88611 | 175.98092 | 17706 ft | 312 kts | 129° |
| 2026-04-16 02:57 | -38.89754 | 176.00466 | 17721 ft | 310 kts | 131° |
| 2026-04-16 02:57 | -38.90947 | 176.02772 | 17562 ft | 316 kts | 133° |
| 2026-04-16 02:57 | -38.92233 | 176.05146 | 17095 ft | 329 kts | 133° |
| 2026-04-16 02:58 | -38.93533 | 176.07586 | 16612 ft | 333 kts | 131° |
| 2026-04-16 02:58 | -38.94807 | 176.10094 | 16142 ft | 335 kts | 130° |
| 2026-04-16 02:58 | -38.96072 | 176.12610 | 15679 ft | 336 kts | 131° |
| 2026-04-16 02:58 | -38.97349 | 176.15122 | 15224 ft | 336 kts | 131° |
| 2026-04-16 02:59 | -38.98627 | 176.17637 | 14774 ft | 336 kts | 131° |
| 2026-04-16 02:59 | -38.99904 | 176.20149 | 14323 ft | 336 kts | 130° |
| 2026-04-16 02:59 | -39.01176 | 176.22664 | 13867 ft | 335 kts | 130° |
| 2026-04-16 02:59 | -39.02441 | 176.25161 | 13424 ft | 331 kts | 131° |
| 2026-04-16 03:00 | -39.03679 | 176.27598 | 12952 ft | 328 kts | 130° |
| 2026-04-16 03:00 | -39.04917 | 176.30047 | 12506 ft | 325 kts | 130° |
| 2026-04-16 03:00 | -39.06152 | 176.32475 | 12068 ft | 323 kts | 130° |
| 2026-04-16 03:00 | -39.07382 | 176.34885 | 11633 ft | 321 kts | 131° |
| 2026-04-16 03:01 | -39.08589 | 176.37291 | 11206 ft | 318 kts | 129° |
| 2026-04-16 03:01 | -39.09765 | 176.39684 | 10774 ft | 315 kts | 129° |
| 2026-04-16 03:01 | -39.10936 | 176.42053 | 10360 ft | 312 kts | 130° |
| 2026-04-16 03:01 | -39.12107 | 176.44388 | 9953 ft | 309 kts | 130° |
| 2026-04-16 03:02 | -39.13265 | 176.46689 | 9536 ft | 305 kts | 129° |
| 2026-04-16 03:02 | -39.14418 | 176.48955 | 9099 ft | 300 kts | 130° |
| 2026-04-16 03:02 | -39.15548 | 176.51202 | 8675 ft | 297 kts | 129° |
| 2026-04-16 03:02 | -39.16666 | 176.53426 | 8240 ft | 294 kts | 129° |
| 2026-04-16 03:03 | -39.17759 | 176.55587 | 7867 ft | 287 kts | 130° |
| 2026-04-16 03:03 | -39.18895 | 176.57651 | 7464 ft | 278 kts | 133° |
| 2026-04-16 03:03 | -39.20078 | 176.59573 | 7102 ft | 271 kts | 135° |
| 2026-04-16 03:03 | -39.21257 | 176.61433 | 6761 ft | 266 kts | 135° |
| 2026-04-16 03:04 | -39.22419 | 176.63273 | 6423 ft | 262 kts | 134° |
| 2026-04-16 03:04 | -39.23547 | 176.65104 | 6091 ft | 258 kts | 133° |
| 2026-04-16 03:04 | -39.24618 | 176.66869 | 5692 ft | 241 kts | 133° |
| 2026-04-16 03:04 | -39.25623 | 176.68513 | 5279 ft | 226 kts | 134° |
| 2026-04-16 03:05 | -39.26559 | 176.70059 | 4989 ft | 216 kts | 133° |
| 2026-04-16 03:05 | -39.27473 | 176.71594 | 4710 ft | 219 kts | 133° |
| 2026-04-16 03:05 | -39.28426 | 176.73151 | 4416 ft | 223 kts | 133° |
| 2026-04-16 03:05 | -39.29405 | 176.74723 | 4126 ft | 226 kts | 133° |
| 2026-04-16 03:06 | -39.30367 | 176.76331 | 3849 ft | 223 kts | 132° |
| 2026-04-16 03:06 | -39.31282 | 176.77884 | 3575 ft | 213 kts | 134° |
| 2026-04-16 03:06 | -39.32621 | 176.81209 | 3029 ft | 220 kts | 103° |
| 2026-04-16 03:07 | -39.32768 | 176.83151 | 2825 ft | 214 kts | 97° |
| 2026-04-16 03:07 | -39.32882 | 176.85031 | 2522 ft | 204 kts | 102° |
| 2026-04-16 03:07 | -39.33500 | 176.86525 | 2240 ft | 179 kts | 148° |
| 2026-04-16 03:07 | -39.34547 | 176.87170 | 1995 ft | 162 kts | 174° |
| 2026-04-16 03:08 | -39.35623 | 176.87465 | 1799 ft | 159 kts | 181° |
| 2026-04-16 03:08 | -39.36718 | 176.87621 | 1576 ft | 155 kts | 187° |
| 2026-04-16 03:08 | -39.37740 | 176.87681 | 1372 ft | 140 kts | 189° |
| 2026-04-16 03:08 | -39.38650 | 176.87670 | 1308 ft | 119 kts | 194° |
| 2026-04-16 03:09 | -39.39445 | 176.87612 | 1169 ft | 114 kts | 192° |
| 2026-04-16 03:09 | -39.40219 | 176.87495 | 1018 ft | 111 kts | 195° |
| 2026-04-16 03:09 | -39.40986 | 176.87428 | 893 ft | 108 kts | 195° |
| 2026-04-16 03:09 | -39.41730 | 176.87344 | 799 ft | 107 kts | 199° |
| 2026-04-16 03:10 | -39.42475 | 176.87274 | 714 ft | 107 kts | 198° |
| 2026-04-16 03:10 | -39.43201 | 176.87143 | 633 ft | 105 kts | 199° |
| 2026-04-16 03:10 | -39.43942 | 176.87060 | 519 ft | 109 kts | 195° |
| 2026-04-16 03:10 | -39.44711 | 176.86978 | 382 ft | 111 kts | 198° |
| 2026-04-16 03:11 | -39.45485 | 176.86885 | 211 ft | 113 kts | 195° |
| 2026-04-16 03:11 | -39.46246 | 176.86802 | 42 ft | 108 kts | 194° |
| 2026-04-16 03:11 | -39.46793 | 176.86702 | 21 ft | 33 kts | 201° |
| 2026-04-16 03:11 | -39.46947 | 176.86699 | 21 ft | 19 kts | 177° |
| 2026-04-16 03:12 | -39.46989 | 176.86723 | 21 ft | 13 kts | 95° |
| 2026-04-16 03:12 | -39.46951 | 176.86740 | 22 ft | 9 kts | 355° |
| 2026-04-16 03:12 | -39.46881 | 176.86735 | 22 ft | 10 kts | 356° |
| 2026-04-16 03:12 | -39.46802 | 176.86739 | 21 ft | 13 kts | 5° |
| 2026-04-16 03:13 | -39.46705 | 176.86750 | 21 ft | 16 kts | 6° |
| 2026-04-16 03:13 | -39.46658 | 176.86802 | 21 ft | 14 kts | 88° |
| 2026-04-16 03:13 | -39.46671 | 176.86966 | 24 ft | 21 kts | 95° |
| 2026-04-16 03:13 | -39.46664 | 176.87082 | 24 ft | 12 kts | 55° |
| 2026-04-16 03:14 | -39.46598 | 176.87139 | 21 ft | 5 kts | 32° |
| 2026-04-16 03:14 | -39.46575 | 176.87174 | 21 ft | 3 kts | 84° |
| 2026-04-16 03:14 | -39.46572 | 176.87186 | 21 ft | 1 kts | 36° |
| 2026-04-16 03:14 | -39.46558 | 176.87208 | 21 ft | 6 kts | 96° |
| 2026-04-16 03:15 | -39.46567 | 176.87213 | 21 ft | 1 kts | 185° |
| 2026-04-16 03:15 | -39.46569 | 176.87212 | 21 ft | 0 kts | 200° |
| 2026-04-16 03:15 | -39.46573 | 176.87209 | 21 ft | 0 kts | 202° |